Nova Ponte, Brazil
Current Conditions -  °F | °C
As of 4:00 PM on Tuesday 27 Jan 2015 (Local Time) from SBUL Reporting Station
Rain Showers Rain Showers  
Wind Chill: 84°   Ceiling: Unl
Heat Index: 85°   Visibility: 6mi
Dew Point: 63°   Wind: 7mph
Humidity: 48%   Direction: 340°NNW
Pressure: 30"   Gusts: NA
Location:  19.15°S, 47.67°W
Report Text: SBUL 271800Z 34006KT 310V010 9999 VCSH SCT040 FEW045TCU 29/17 Q1016
Loading
Personal Weather Stations






























Interactive Weather Map New forecast layout! Learn more

10-Day Weather Forecast

Advertisements
Track Severe Weather on mobile